sensor_id;sensor_type;location;lat;lon;timestamp;pressure;altitude;pressure_sealevel;temperature;humidity
19789;BME280;10054;59.332;18.244;2024-03-02T00:02:10;100921.98;;;3.42;100.00
19789;BME280;10054;59.332;18.244;2024-03-02T00:04:40;100920.27;;;3.41;100.00
19789;BME280;10054;59.332;18.244;2024-03-02T00:07:09;100925.00;;;3.43;100.00
19789;BME280;10054;59.332;18.244;2024-03-02T00:09:38;100929.72;;;3.45;100.00
19789;BME280;10054;59.332;18.244;2024-03-02T00:12:08;100920.59;;;3.45;100.00
19789;BME280;10054;59.332;18.244;2024-03-02T00:14:37;100917.58;;;3.44;100.00
19789;BME280;10054;59.332;18.244;2024-03-02T00:17:08;100925.40;;;3.44;100.00
19789;BME280;10054;59.332;18.244;2024-03-02T00:19:39;100918.52;;;3.41;100.00
19789;BME280;10054;59.332;18.244;2024-03-02T00:22:08;100924.63;;;3.40;100.00
19789;BME280;10054;59.332;18.244;2024-03-02T00:24:37;100923.38;;;3.39;100.00
19789;BME280;10054;59.332;18.244;2024-03-02T00:27:08;100925.16;;;3.37;100.00
19789;BME280;10054;59.332;18.244;2024-03-02T00:29:40;100917.84;;;3.35;100.00
19789;BME280;10054;59.332;18.244;2024-03-02T00:32:12;100924.39;;;3.33;100.00
19789;BME280;10054;59.332;18.244;2024-03-02T00:34:43;100927.91;;;3.32;100.00
19789;BME280;10054;59.332;18.244;2024-03-02T00:37:12;100924.93;;;3.29;100.00
19789;BME280;10054;59.332;18.244;2024-03-02T00:39:41;100929.33;;;3.27;100.00
19789;BME280;10054;59.332;18.244;2024-03-02T00:42:11;100932.34;;;3.28;100.00
19789;BME280;10054;59.332;18.244;2024-03-02T00:44:40;100922.41;;;3.26;100.00
19789;BME280;10054;59.332;18.244;2024-03-02T00:47:09;100919.88;;;3.23;100.00
19789;BME280;10054;59.332;18.244;2024-03-02T00:49:38;100919.92;;;3.22;100.00
19789;BME280;10054;59.332;18.244;2024-03-02T00:52:07;100914.30;;;3.21;100.00
19789;BME280;10054;59.332;18.244;2024-03-02T00:54:36;100912.15;;;3.20;100.00
19789;BME280;10054;59.332;18.244;2024-03-02T00:57:05;100919.11;;;3.20;100.00
19789;BME280;10054;59.332;18.244;2024-03-02T00:59:34;100913.09;;;3.18;100.00
19789;BME280;10054;59.332;18.244;2024-03-02T01:02:03;100914.87;;;3.16;100.00
19789;BME280;10054;59.332;18.244;2024-03-02T01:04:32;100914.52;;;3.13;100.00
19789;BME280;10054;59.332;18.244;2024-03-02T01:07:02;100915.45;;;3.11;100.00
19789;BME280;10054;59.332;18.244;2024-03-02T01:09:30;100915.49;;;3.09;100.00
19789;BME280;10054;59.332;18.244;2024-03-02T01:11:59;100916.84;;;3.08;100.00
19789;BME280;10054;59.332;18.244;2024-03-02T01:14:28;100918.14;;;3.08;100.00
19789;BME280;10054;59.332;18.244;2024-03-02T01:16:58;100923.39;;;3.06;100.00
19789;BME280;10054;59.332;18.244;2024-03-02T01:19:27;100926.04;;;3.05;100.00
19789;BME280;10054;59.332;18.244;2024-03-02T01:21:56;100921.28;;;3.04;100.00
19789;BME280;10054;59.332;18.244;2024-03-02T01:24:26;100931.66;;;3.06;100.00
19789;BME280;10054;59.332;18.244;2024-03-02T01:26:55;100935.16;;;3.05;100.00
19789;BME280;10054;59.332;18.244;2024-03-02T01:29:24;100936.02;;;3.05;100.00
19789;BME280;10054;59.332;18.244;2024-03-02T01:31:53;100935.05;;;3.09;100.00
19789;BME280;10054;59.332;18.244;2024-03-02T01:34:22;100938.55;;;3.08;100.00
19789;BME280;10054;59.332;18.244;2024-03-02T01:36:51;100939.44;;;3.07;100.00
19789;BME280;10054;59.332;18.244;2024-03-02T01:39:20;100940.86;;;3.03;100.00
19789;BME280;10054;59.332;18.244;2024-03-02T01:41:49;100937.89;;;3.00;100.00
19789;BME280;10054;59.332;18.244;2024-03-02T01:44:19;100934.84;;;3.01;100.00
19789;BME280;10054;59.332;18.244;2024-03-02T01:46:47;100927.88;;;3.01;100.00
19789;BME280;10054;59.332;18.244;2024-03-02T01:49:17;100926.98;;;3.02;100.00
19789;BME280;10054;59.332;18.244;2024-03-02T01:51:46;100924.78;;;3.03;100.00
19789;BME280;10054;59.332;18.244;2024-03-02T01:54:15;100925.59;;;3.05;100.00
19789;BME280;10054;59.332;18.244;2024-03-02T01:56:44;100922.54;;;3.06;100.00
19789;BME280;10054;59.332;18.244;2024-03-02T01:59:13;100922.09;;;3.06;100.00
19789;BME280;10054;59.332;18.244;2024-03-02T02:01:42;100923.80;;;3.07;100.00
19789;BME280;10054;59.332;18.244;2024-03-02T02:04:11;100928.61;;;3.06;100.00
19789;BME280;10054;59.332;18.244;2024-03-02T02:06:41;100920.78;;;3.06;100.00
19789;BME280;10054;59.332;18.244;2024-03-02T02:09:11;100926.00;;;3.06;100.00
19789;BME280;10054;59.332;18.244;2024-03-02T02:11:40;100929.02;;;3.07;100.00
19789;BME280;10054;59.332;18.244;2024-03-02T02:14:09;100935.16;;;3.05;100.00
19789;BME280;10054;59.332;18.244;2024-03-02T02:16:38;100931.70;;;3.04;100.00
19789;BME280;10054;59.332;18.244;2024-03-02T02:19:07;100928.65;;;3.05;100.00
19789;BME280;10054;59.332;18.244;2024-03-02T02:21:37;100933.91;;;3.03;100.00
19789;BME280;10054;59.332;18.244;2024-03-02T02:24:06;100933.45;;;3.04;100.00
19789;BME280;10054;59.332;18.244;2024-03-02T02:26:35;100933.49;;;3.02;100.00
19789;BME280;10054;59.332;18.244;2024-03-02T02:29:04;100937.85;;;3.02;100.00
19789;BME280;10054;59.332;18.244;2024-03-02T02:31:37;100933.53;;;3.01;100.00
19789;BME280;10054;59.332;18.244;2024-03-02T02:34:06;100929.66;;;2.99;100.00
19789;BME280;10054;59.332;18.244;2024-03-02T02:36:38;100933.98;;;3.00;100.00
19789;BME280;10054;59.332;18.244;2024-03-02T02:39:10;100930.64;;;3.11;100.00
19789;BME280;10054;59.332;18.244;2024-03-02T02:41:40;100930.64;;;3.11;100.00
19789;BME280;10054;59.332;18.244;2024-03-02T02:44:09;100940.34;;;3.06;100.00
19789;BME280;10054;59.332;18.244;2024-03-02T02:46:40;100935.24;;;3.02;100.00
19789;BME280;10054;59.332;18.244;2024-03-02T02:49:08;100931.41;;;2.98;100.00
19789;BME280;10054;59.332;18.244;2024-03-02T02:51:38;100931.13;;;2.94;100.00
19789;BME280;10054;59.332;18.244;2024-03-02T02:54:08;100930.75;;;2.92;100.00
19789;BME280;10054;59.332;18.244;2024-03-02T02:56:37;100927.33;;;2.90;100.00
19789;BME280;10054;59.332;18.244;2024-03-02T02:59:06;100935.59;;;2.89;100.00
19789;BME280;10054;59.332;18.244;2024-03-02T03:01:35;100934.30;;;2.89;100.00
19789;BME280;10054;59.332;18.244;2024-03-02T03:04:04;100932.58;;;2.88;100.00
19789;BME280;10054;59.332;18.244;2024-03-02T03:06:33;100936.05;;;2.89;100.00
19789;BME280;10054;59.332;18.244;2024-03-02T03:09:02;100939.58;;;2.86;100.00
19789;BME280;10054;59.332;18.244;2024-03-02T03:11:31;100930.02;;;2.87;100.00
19789;BME280;10054;59.332;18.244;2024-03-02T03:14:00;100934.38;;;2.86;100.00
19789;BME280;10054;59.332;18.244;2024-03-02T03:16:29;100925.30;;;2.85;100.00
19789;BME280;10054;59.332;18.244;2024-03-02T03:18:58;100930.50;;;2.85;100.00
19789;BME280;10054;59.332;18.244;2024-03-02T03:21:27;100927.49;;;2.84;100.00
19789;BME280;10054;59.332;18.244;2024-03-02T03:23:56;100927.08;;;2.83;100.00
19789;BME280;10054;59.332;18.244;2024-03-02T03:26:25;100927.53;;;2.82;100.00
19789;BME280;10054;59.332;18.244;2024-03-02T03:28:54;100921.91;;;2.81;100.00
19789;BME280;10054;59.332;18.244;2024-03-02T03:31:23;100924.97;;;2.81;100.00
19789;BME280;10054;59.332;18.244;2024-03-02T03:33:52;100929.28;;;2.82;100.00
19789;BME280;10054;59.332;18.244;2024-03-02T03:36:21;100927.61;;;2.79;100.00
19789;BME280;10054;59.332;18.244;2024-03-02T03:38:50;100938.03;;;2.79;100.00
19789;BME280;10054;59.332;18.244;2024-03-02T03:41:19;100929.31;;;2.80;100.00
19789;BME280;10054;59.332;18.244;2024-03-02T03:43:48;100928.02;;;2.80;100.00
19789;BME280;10054;59.332;18.244;2024-03-02T03:46:17;100930.62;;;2.80;100.00
19789;BME280;10054;59.332;18.244;2024-03-02T03:48:46;100933.23;;;2.80;100.00
19789;BME280;10054;59.332;18.244;2024-03-02T03:51:15;100930.14;;;2.82;100.00
19789;BME280;10054;59.332;18.244;2024-03-02T03:53:44;100934.00;;;2.84;100.00
19789;BME280;10054;59.332;18.244;2024-03-02T03:56:13;100944.50;;;2.81;100.00
19789;BME280;10054;59.332;18.244;2024-03-02T03:58:42;100945.84;;;2.79;100.00
19789;BME280;10054;59.332;18.244;2024-03-02T04:01:11;100940.30;;;2.75;100.00
19789;BME280;10054;59.332;18.244;2024-03-02T04:03:39;100939.89;;;2.74;100.00
19789;BME280;10054;59.332;18.244;2024-03-02T04:06:08;100935.13;;;2.74;100.00
19789;BME280;10054;59.332;18.244;2024-03-02T04:08:37;100934.23;;;2.75;100.00
19789;BME280;10054;59.332;18.244;2024-03-02T04:11:06;100931.67;;;2.73;100.00
19789;BME280;10054;59.332;18.244;2024-03-02T04:13:35;100936.92;;;2.72;100.00
19789;BME280;10054;59.332;18.244;2024-03-02T04:16:05;100938.67;;;2.71;100.00
19789;BME280;10054;59.332;18.244;2024-03-02T04:18:34;100938.26;;;2.70;100.00
19789;BME280;10054;59.332;18.244;2024-03-02T04:21:03;100936.51;;;2.71;100.00
19789;BME280;10054;59.332;18.244;2024-03-02T04:23:32;100937.41;;;2.70;100.00
19789;BME280;10054;59.332;18.244;2024-03-02T04:26:01;100942.61;;;2.70;100.00
19789;BME280;10054;59.332;18.244;2024-03-02T04:28:30;100943.06;;;2.69;100.00
19789;BME280;10054;59.332;18.244;2024-03-02T04:30:59;100942.65;;;2.68;100.00
19789;BME280;10054;59.332;18.244;2024-03-02T04:33:28;100943.51;;;2.69;100.00
19789;BME280;10054;59.332;18.244;2024-03-02T04:35:57;100939.59;;;2.69;100.00
19789;BME280;10054;59.332;18.244;2024-03-02T04:38:26;100943.95;;;2.68;100.00
19789;BME280;10054;59.332;18.244;2024-03-02T04:40:56;100940.91;;;2.69;100.00
19789;BME280;10054;59.332;18.244;2024-03-02T04:43:25;100943.06;;;2.69;100.00
19789;BME280;10054;59.332;18.244;2024-03-02T04:45:54;100944.33;;;2.71;100.00
19789;BME280;10054;59.332;18.244;2024-03-02T04:48:23;100942.61;;;2.70;100.00
19789;BME280;10054;59.332;18.244;2024-03-02T04:50:52;100946.52;;;2.70;100.00
19789;BME280;10054;59.332;18.244;2024-03-02T04:53:21;100949.57;;;2.69;100.00
19789;BME280;10054;59.332;18.244;2024-03-02T04:55:50;100953.81;;;2.73;100.00
19789;BME280;10054;59.332;18.244;2024-03-02T04:58:24;100946.78;;;2.77;100.00
19789;BME280;10054;59.332;18.244;2024-03-02T05:00:53;100948.97;;;2.76;100.00
19789;BME280;10054;59.332;18.244;2024-03-02T05:03:22;100938.63;;;2.73;100.00
19789;BME280;10054;59.332;18.244;2024-03-02T05:05:52;100955.59;;;2.71;100.00
19789;BME280;10054;59.332;18.244;2024-03-02T05:08:21;100952.63;;;2.69;100.00
19789;BME280;10054;59.332;18.244;2024-03-02T05:10:50;100951.32;;;2.69;100.00
19789;BME280;10054;59.332;18.244;2024-03-02T05:13:19;100957.42;;;2.68;100.00
19789;BME280;10054;59.332;18.244;2024-03-02T05:15:48;100950.05;;;2.67;100.00
19789;BME280;10054;59.332;18.244;2024-03-02T05:18:17;100957.42;;;2.68;100.00
19789;BME280;10054;59.332;18.244;2024-03-02T05:20:47;100950.02;;;2.69;100.00
19789;BME280;10054;59.332;18.244;2024-03-02T05:23:16;100952.17;;;2.69;100.00
19789;BME280;10054;59.332;18.244;2024-03-02T05:25:45;100957.34;;;2.71;100.00
19789;BME280;10054;59.332;18.244;2024-03-02T05:28:13;100954.70;;;2.72;100.00
19789;BME280;10054;59.332;18.244;2024-03-02T05:30:43;100956.45;;;2.72;100.00
19789;BME280;10054;59.332;18.244;2024-03-02T05:33:12;100956.42;;;2.73;100.00
19789;BME280;10054;59.332;18.244;2024-03-02T05:35:41;100960.33;;;2.73;100.00
19789;BME280;10054;59.332;18.244;2024-03-02T05:38:10;100970.30;;;2.74;100.00
19789;BME280;10054;59.332;18.244;2024-03-02T05:40:39;100960.77;;;2.73;100.00
19789;BME280;10054;59.332;18.244;2024-03-02T05:43:08;100957.34;;;2.71;100.00
19789;BME280;10054;59.332;18.244;2024-03-02T05:45:37;100960.81;;;2.71;100.00
19789;BME280;10054;59.332;18.244;2024-03-02T05:48:07;100958.20;;;2.71;100.00
19789;BME280;10054;59.332;18.244;2024-03-02T05:50:37;100966.42;;;2.72;100.00
19789;BME280;10054;59.332;18.244;2024-03-02T05:53:06;100975.51;;;2.74;100.00
19789;BME280;10054;59.332;18.244;2024-03-02T05:55:36;100974.17;;;2.75;100.00
19789;BME280;10054;59.332;18.244;2024-03-02T05:58:05;100980.64;;;2.77;100.00
19789;BME280;10054;59.332;18.244;2024-03-02T06:00:36;100978.86;;;2.79;100.00
19789;BME280;10054;59.332;18.244;2024-03-02T06:03:05;100987.08;;;2.80;100.00
19789;BME280;10054;59.332;18.244;2024-03-02T06:05:35;100986.59;;;2.82;100.00
19789;BME280;10054;59.332;18.244;2024-03-02T06:08:04;100984.81;;;2.84;100.00
19789;BME280;10054;59.332;18.244;2024-03-02T06:10:33;100985.92;;;2.91;100.00
19789;BME280;10054;59.332;18.244;2024-03-02T06:13:02;100989.30;;;2.95;100.00
19789;BME280;10054;59.332;18.244;2024-03-02T06:15:31;100993.70;;;2.93;100.00
19789;BME280;10054;59.332;18.244;2024-03-02T06:18:02;100990.73;;;2.90;100.00
19789;BME280;10054;59.332;18.244;2024-03-02T06:20:31;100998.98;;;2.90;100.00
19789;BME280;10054;59.332;18.244;2024-03-02T06:23:00;101004.20;;;2.90;100.00
19789;BME280;10054;59.332;18.244;2024-03-02T06:25:29;101001.15;;;2.90;100.00
19789;BME280;10054;59.332;18.244;2024-03-02T06:27:58;101010.23;;;2.92;100.00
19789;BME280;10054;59.332;18.244;2024-03-02T06:30:27;101010.19;;;2.93;100.00
19789;BME280;10054;59.332;18.244;2024-03-02T06:32:57;100999.32;;;2.94;100.00
19789;BME280;10054;59.332;18.244;2024-03-02T06:35:26;101007.95;;;2.96;100.00
19789;BME280;10054;59.332;18.244;2024-03-02T06:37:55;101008.70;;;3.00;100.00
19789;BME280;10054;59.332;18.244;2024-03-02T06:40:24;101009.52;;;3.02;100.00
19789;BME280;10054;59.332;18.244;2024-03-02T06:42:53;101013.80;;;3.04;100.00
19789;BME280;10054;59.332;18.244;2024-03-02T06:45:22;101011.16;;;3.06;100.00
19789;BME280;10054;59.332;18.244;2024-03-02T06:47:51;101010.67;;;3.08;100.00
19789;BME280;10054;59.332;18.244;2024-03-02T06:50:20;101014.95;;;3.10;100.00
19789;BME280;10054;59.332;18.244;2024-03-02T06:52:49;101031.41;;;3.12;100.00
19789;BME280;10054;59.332;18.244;2024-03-02T06:55:18;101036.99;;;3.15;100.00
19789;BME280;10054;59.332;18.244;2024-03-02T06:57:47;101029.54;;;3.17;100.00
19789;BME280;10054;59.332;18.244;2024-03-02T07:00:17;101028.61;;;3.20;100.00
19789;BME280;10054;59.332;18.244;2024-03-02T07:02:47;101034.64;;;3.22;100.00
19789;BME280;10054;59.332;18.244;2024-03-02T07:05:17;101030.28;;;3.22;100.00
19789;BME280;10054;59.332;18.244;2024-03-02T07:07:46;101025.44;;;3.25;100.00
19789;BME280;10054;59.332;18.244;2024-03-02T07:10:15;101038.43;;;3.26;100.00
19789;BME280;10054;59.332;18.244;2024-03-02T07:12:44;101034.92;;;3.27;100.00
19789;BME280;10054;59.332;18.244;2024-03-02T07:15:14;101040.10;;;3.29;100.00
19789;BME280;10054;59.332;18.244;2024-03-02T07:17:56;101044.87;;;3.29;100.00
19789;BME280;10054;59.332;18.244;2024-03-02T07:20:25;101045.28;;;3.30;100.00
19789;BME280;10054;59.332;18.244;2024-03-02T07:22:54;101042.19;;;3.33;100.00
19789;BME280;10054;59.332;18.244;2024-03-02T07:25:23;101049.52;;;3.35;100.00
19789;BME280;10054;59.332;18.244;2024-03-02T07:27:52;101049.48;;;3.36;100.00
19789;BME280;10054;59.332;18.244;2024-03-02T07:30:21;101055.10;;;3.37;100.00
19789;BME280;10054;59.332;18.244;2024-03-02T07:32:53;101046.34;;;3.40;100.00
19789;BME280;10054;59.332;18.244;2024-03-02T07:35:22;101049.77;;;3.42;100.00
19789;BME280;10054;59.332;18.244;2024-03-02T07:37:53;101053.23;;;3.42;100.00
19789;BME280;10054;59.332;18.244;2024-03-02T07:40:23;101051.84;;;3.45;100.00
19789;BME280;10054;59.332;18.244;2024-03-02T07:42:52;101053.56;;;3.46;100.00
19789;BME280;10054;59.332;18.244;2024-03-02T07:45:21;101057.84;;;3.49;100.00
19789;BME280;10054;59.332;18.244;2024-03-02T07:47:50;101054.78;;;3.49;100.00
19789;BME280;10054;59.332;18.244;2024-03-02T07:50:19;101062.56;;;3.51;100.00
19789;BME280;10054;59.332;18.244;2024-03-02T07:52:48;101048.22;;;3.51;100.00
19789;BME280;10054;59.332;18.244;2024-03-02T07:55:18;101051.20;;;3.53;100.00
19789;BME280;10054;59.332;18.244;2024-03-02T07:57:47;101046.43;;;3.53;100.00
19789;BME280;10054;59.332;18.244;2024-03-02T08:00:17;101055.97;;;3.54;100.00
19789;BME280;10054;59.332;18.244;2024-03-02T08:02:46;101060.37;;;3.52;100.00
19789;BME280;10054;59.332;18.244;2024-03-02T08:05:15;101056.82;;;3.54;100.00
19789;BME280;10054;59.332;18.244;2024-03-02T08:07:44;101067.22;;;3.56;100.00
19789;BME280;10054;59.332;18.244;2024-03-02T08:10:14;101065.88;;;3.57;100.00
19789;BME280;10054;59.332;18.244;2024-03-02T08:12:43;101067.13;;;3.59;100.00
19789;BME280;10054;59.332;18.244;2024-03-02T08:15:13;101064.04;;;3.61;100.00
19789;BME280;10054;59.332;18.244;2024-03-02T08:17:43;101072.27;;;3.62;100.00
19789;BME280;10054;59.332;18.244;2024-03-02T08:20:19;101075.25;;;3.65;100.00
19789;BME280;10054;59.332;18.244;2024-03-02T08:22:48;101069.09;;;3.67;100.00
19789;BME280;10054;59.332;18.244;2024-03-02T08:25:18;101072.59;;;3.66;100.00
19789;BME280;10054;59.332;18.244;2024-03-02T08:27:47;101066.11;;;3.65;100.00
19789;BME280;10054;59.332;18.244;2024-03-02T08:30:16;101066.56;;;3.64;100.00
19789;BME280;10054;59.332;18.244;2024-03-02T08:32:45;101074.88;;;3.62;100.00
19789;BME280;10054;59.332;18.244;2024-03-02T08:35:14;101074.47;;;3.61;100.00
19789;BME280;10054;59.332;18.244;2024-03-02T08:37:51;101074.47;;;3.61;100.00
19789;BME280;10054;59.332;18.244;2024-03-02T08:40:21;101085.77;;;3.61;100.00
19789;BME280;10054;59.332;18.244;2024-03-02T08:42:50;101075.37;;;3.60;100.00
19789;BME280;10054;59.332;18.244;2024-03-02T08:45:19;101075.33;;;3.61;100.00
19789;BME280;10054;59.332;18.244;2024-03-02T08:47:49;101069.25;;;3.61;100.00
19789;BME280;10054;59.332;18.244;2024-03-02T08:50:18;101065.30;;;3.62;100.00
19789;BME280;10054;59.332;18.244;2024-03-02T08:52:47;101060.53;;;3.62;100.00
19789;BME280;10054;59.332;18.244;2024-03-02T08:55:16;101060.98;;;3.61;100.00
19789;BME280;10054;59.332;18.244;2024-03-02T08:57:45;101070.97;;;3.62;100.00
19789;BME280;10054;59.332;18.244;2024-03-02T09:00:14;101060.98;;;3.61;100.00
19789;BME280;10054;59.332;18.244;2024-03-02T09:02:45;101059.67;;;3.61;100.00
19789;BME280;10054;59.332;18.244;2024-03-02T09:05:14;101058.73;;;3.64;100.00
19789;BME280;10054;59.332;18.244;2024-03-02T09:07:43;101059.64;;;3.63;100.00
19789;BME280;10054;59.332;18.244;2024-03-02T09:10:12;101066.08;;;3.66;100.00
19789;BME280;10054;59.332;18.244;2024-03-02T09:12:41;101070.84;;;3.67;100.00
19789;BME280;10054;59.332;18.244;2024-03-02T09:15:11;101073.41;;;3.68;100.00
19789;BME280;10054;59.332;18.244;2024-03-02T09:17:40;101066.84;;;3.70;100.00
19789;BME280;10054;59.332;18.244;2024-03-02T09:20:10;101077.25;;;3.71;100.00
19789;BME280;10054;59.332;18.244;2024-03-02T09:22:39;101071.95;;;3.73;100.00
19789;BME280;10054;59.332;18.244;2024-03-02T09:25:10;101069.34;;;3.73;100.00
19789;BME280;10054;59.332;18.244;2024-03-02T09:27:39;101066.20;;;3.76;100.00
19789;BME280;10054;59.332;18.244;2024-03-02T09:30:10;101065.22;;;3.80;100.00
19789;BME280;10054;59.332;18.244;2024-03-02T09:32:39;101065.50;;;3.86;100.00
19789;BME280;10054;59.332;18.244;2024-03-02T09:35:08;101064.03;;;3.92;100.00
19789;BME280;10054;59.332;18.244;2024-03-02T09:37:37;101061.69;;;3.98;100.00
19789;BME280;10054;59.332;18.244;2024-03-02T09:40:07;101060.17;;;4.05;100.00
19789;BME280;10054;59.332;18.244;2024-03-02T09:42:36;101069.50;;;4.14;100.00
19789;BME280;10054;59.332;18.244;2024-03-02T09:45:06;101063.28;;;4.18;100.00
19789;BME280;10054;59.332;18.244;2024-03-02T09:47:35;101068.38;;;4.22;100.00
19789;BME280;10054;59.332;18.244;2024-03-02T09:50:05;101069.05;;;4.29;100.00
19789;BME280;10054;59.332;18.244;2024-03-02T09:52:34;101073.02;;;4.27;100.00
19789;BME280;10054;59.332;18.244;2024-03-02T09:55:05;101077.78;;;4.28;100.00
19789;BME280;10054;59.332;18.244;2024-03-02T09:57:54;101073.38;;;4.30;100.00
19789;BME280;10054;59.332;18.244;2024-03-02T10:00:23;101084.27;;;4.29;100.00
19789;BME280;10054;59.332;18.244;2024-03-02T10:02:53;101075.98;;;4.30;100.00
19789;BME280;10054;59.332;18.244;2024-03-02T10:05:26;101074.32;;;4.27;100.00
19789;BME280;10054;59.332;18.244;2024-03-02T10:08:00;101073.87;;;4.28;100.00
19789;BME280;10054;59.332;18.244;2024-03-02T10:10:40;101086.97;;;4.26;100.00
19789;BME280;10054;59.332;18.244;2024-03-02T10:13:12;101086.97;;;4.26;100.00
19789;BME280;10054;59.332;18.244;2024-03-02T10:15:42;101090.08;;;4.24;100.00
19789;BME280;10054;59.332;18.244;2024-03-02T10:18:11;101081.39;;;4.24;100.00
19789;BME280;10054;59.332;18.244;2024-03-02T10:20:41;101074.95;;;4.21;100.00
19789;BME280;10054;59.332;18.244;2024-03-02T10:23:12;101084.94;;;4.21;100.00
19789;BME280;10054;59.332;18.244;2024-03-02T10:25:41;101078.95;;;4.18;100.00
19789;BME280;10054;59.332;18.244;2024-03-02T10:28:11;101078.91;;;4.19;100.00
19789;BME280;10054;59.332;18.244;2024-03-02T10:30:40;101071.25;;;4.13;100.00
19789;BME280;10054;59.332;18.244;2024-03-02T10:33:09;101075.66;;;4.11;100.00
19789;BME280;10054;59.332;18.244;2024-03-02T10:35:40;101077.87;;;4.10;100.00
19789;BME280;10054;59.332;18.244;2024-03-02T10:38:11;101081.78;;;4.10;100.00
19789;BME280;10054;59.332;18.244;2024-03-02T10:40:39;101092.27;;;4.09;100.00
19789;BME280;10054;59.332;18.244;2024-03-02T10:43:09;101083.13;;;4.09;100.00
19789;BME280;10054;59.332;18.244;2024-03-02T10:45:39;101079.22;;;4.09;100.00
19789;BME280;10054;59.332;18.244;2024-03-02T10:48:08;101080.92;;;4.10;100.00
19789;BME280;10054;59.332;18.244;2024-03-02T10:50:38;101083.17;;;4.07;100.00
19789;BME280;10054;59.332;18.244;2024-03-02T10:53:07;101084.84;;;4.10;100.00
19789;BME280;10054;59.332;18.244;2024-03-02T10:55:36;101086.55;;;4.11;100.00
19789;BME280;10054;59.332;18.244;2024-03-02T10:58:07;101078.27;;;4.11;100.00
19789;BME280;10054;59.332;18.244;2024-03-02T11:00:39;101086.52;;;4.12;100.00
19789;BME280;10054;59.332;18.244;2024-03-02T11:03:10;101086.52;;;4.12;100.00
19789;BME280;10054;59.332;18.244;2024-03-02T11:05:43;101091.20;;;4.16;100.00
19789;BME280;10054;59.332;18.244;2024-03-02T11:08:13;101086.66;;;4.22;100.00
19789;BME280;10054;59.332;18.244;2024-03-02T11:13:24;101097.68;;;4.17;100.00
19789;BME280;10054;59.332;18.244;2024-03-02T11:15:55;101090.38;;;4.14;100.00
19789;BME280;10054;59.332;18.244;2024-03-02T11:18:25;101081.66;;;4.15;100.00
19789;BME280;10054;59.332;18.244;2024-03-02T11:20:56;101083.05;;;4.12;100.00
19789;BME280;10054;59.332;18.244;2024-03-02T11:23:35;101083.81;;;4.15;100.00
19789;BME280;10054;59.332;18.244;2024-03-02T11:26:30;101080.34;;;4.15;100.00
19789;BME280;10054;59.332;18.244;2024-03-02T11:29:00;101084.71;;;4.14;100.00
19789;BME280;10054;59.332;18.244;2024-03-02T11:31:59;101083.86;;;4.14;100.00
19789;BME280;10054;59.332;18.244;2024-03-02T11:34:34;101080.80;;;4.14;100.00
19789;BME280;10054;59.332;18.244;2024-03-02T11:37:04;101085.66;;;4.12;100.00
19789;BME280;10054;59.332;18.244;2024-03-02T11:39:33;101086.06;;;4.13;100.00
19789;BME280;10054;59.332;18.244;2024-03-02T11:42:03;101078.31;;;4.10;100.00
19789;BME280;10054;59.332;18.244;2024-03-02T11:44:33;101082.72;;;4.08;100.00
19789;BME280;10054;59.332;18.244;2024-03-02T11:47:10;101086.23;;;4.07;100.00
19789;BME280;10054;59.332;18.244;2024-03-02T11:49:42;101090.16;;;4.07;100.00
19789;BME280;10054;59.332;18.244;2024-03-02T11:52:14;101089.25;;;4.08;100.00
19789;BME280;10054;59.332;18.244;2024-03-02T11:54:47;101092.67;;;4.10;100.00
19789;BME280;10054;59.332;18.244;2024-03-02T11:57:21;101091.86;;;4.08;100.00
19789;BME280;10054;59.332;18.244;2024-03-02T11:59:54;101099.78;;;4.05;100.00
19789;BME280;10054;59.332;18.244;2024-03-02T12:02:24;101088.52;;;4.03;100.00
19789;BME280;10054;59.332;18.244;2024-03-02T12:04:54;101091.30;;;3.96;100.00
19789;BME280;10054;59.332;18.244;2024-03-02T12:07:24;101092.70;;;3.93;100.00
19789;BME280;10054;59.332;18.244;2024-03-02T12:10:02;101088.41;;;3.91;100.00
19789;BME280;10054;59.332;18.244;2024-03-02T12:12:33;101086.66;;;3.91;100.00
19789;BME280;10054;59.332;18.244;2024-03-02T12:15:02;101086.17;;;3.93;100.00
19789;BME280;10054;59.332;18.244;2024-03-02T12:17:31;101079.19;;;3.94;100.00
19789;BME280;10054;59.332;18.244;2024-03-02T12:20:00;101080.09;;;3.93;100.00
19789;BME280;10054;59.332;18.244;2024-03-02T12:22:31;101076.22;;;3.91;100.00
19789;BME280;10054;59.332;18.244;2024-03-02T12:25:00;101080.55;;;3.92;100.00
19789;BME280;10054;59.332;18.244;2024-03-02T12:27:31;101085.40;;;3.90;100.00
19789;BME280;10054;59.332;18.244;2024-03-02T12:30:00;101089.67;;;3.92;100.00
19789;BME280;10054;59.332;18.244;2024-03-02T12:32:29;101092.73;;;3.92;100.00
19789;BME280;10054;59.332;18.244;2024-03-02T12:34:59;101086.25;;;3.90;100.00
19789;BME280;10054;59.332;18.244;2024-03-02T12:37:28;101085.36;;;3.91;100.00
19789;BME280;10054;59.332;18.244;2024-03-02T12:39:58;101090.21;;;3.89;100.00
19789;BME280;10054;59.332;18.244;2024-03-02T12:42:27;101086.74;;;3.88;100.00
19789;BME280;10054;59.332;18.244;2024-03-02T12:44:56;101082.91;;;3.85;100.00
19789;BME280;10054;59.332;18.244;2024-03-02T12:47:25;101084.70;;;3.83;100.00
19789;BME280;10054;59.332;18.244;2024-03-02T12:49:54;101089.16;;;3.80;100.00
19789;BME280;10054;59.332;18.244;2024-03-02T12:52:23;101087.81;;;3.81;100.00
19789;BME280;10054;59.332;18.244;2024-03-02T12:54:52;101082.59;;;3.81;100.00
19789;BME280;10054;59.332;18.244;2024-03-02T12:57:31;101079.57;;;3.80;100.00